sensor_id;sensor_type;location;lat;lon;timestamp;P1;durP1;ratioP1;P2;durP2;ratioP2
19107;SDS011;9686;48.832;9.126;2024-02-26T00:01:14;0.97;;;0.93;;
19107;SDS011;9686;48.832;9.126;2024-02-26T00:03:39;1.07;;;0.70;;
19107;SDS011;9686;48.832;9.126;2024-02-26T00:06:07;1.10;;;1.00;;
19107;SDS011;9686;48.832;9.126;2024-02-26T00:08:32;1.17;;;1.07;;
19107;SDS011;9686;48.832;9.126;2024-02-26T00:10:57;0.83;;;0.83;;
19107;SDS011;9686;48.832;9.126;2024-02-26T00:13:23;1.27;;;1.23;;
19107;SDS011;9686;48.832;9.126;2024-02-26T00:15:48;5.73;;;2.00;;
19107;SDS011;9686;48.832;9.126;2024-02-26T00:18:13;2.03;;;1.33;;
19107;SDS011;9686;48.832;9.126;2024-02-26T00:20:39;1.50;;;1.37;;
19107;SDS011;9686;48.832;9.126;2024-02-26T00:23:05;0.67;;;0.67;;
19107;SDS011;9686;48.832;9.126;2024-02-26T00:25:30;1.80;;;1.47;;
19107;SDS011;9686;48.832;9.126;2024-02-26T00:27:55;1.23;;;1.13;;
19107;SDS011;9686;48.832;9.126;2024-02-26T00:30:21;0.90;;;0.90;;
19107;SDS011;9686;48.832;9.126;2024-02-26T00:32:47;2.10;;;1.17;;
19107;SDS011;9686;48.832;9.126;2024-02-26T00:35:12;2.87;;;1.10;;
19107;SDS011;9686;48.832;9.126;2024-02-26T00:37:39;3.03;;;1.43;;
19107;SDS011;9686;48.832;9.126;2024-02-26T00:40:04;2.90;;;1.67;;
19107;SDS011;9686;48.832;9.126;2024-02-26T00:42:31;2.10;;;0.87;;
19107;SDS011;9686;48.832;9.126;2024-02-26T00:44:56;1.50;;;1.40;;
19107;SDS011;9686;48.832;9.126;2024-02-26T00:47:22;0.53;;;0.53;;
19107;SDS011;9686;48.832;9.126;2024-02-26T00:49:47;0.90;;;0.90;;
19107;SDS011;9686;48.832;9.126;2024-02-26T00:52:12;2.00;;;0.97;;
19107;SDS011;9686;48.832;9.126;2024-02-26T00:54:37;0.97;;;0.93;;
19107;SDS011;9686;48.832;9.126;2024-02-26T00:57:03;1.63;;;1.40;;
19107;SDS011;9686;48.832;9.126;2024-02-26T00:59:28;1.47;;;1.23;;
19107;SDS011;9686;48.832;9.126;2024-02-26T01:01:53;0.83;;;0.83;;
19107;SDS011;9686;48.832;9.126;2024-02-26T01:04:18;0.97;;;0.97;;
19107;SDS011;9686;48.832;9.126;2024-02-26T01:06:44;1.77;;;1.07;;
19107;SDS011;9686;48.832;9.126;2024-02-26T01:09:09;3.63;;;1.17;;
19107;SDS011;9686;48.832;9.126;2024-02-26T01:11:34;2.20;;;0.97;;
19107;SDS011;9686;48.832;9.126;2024-02-26T01:14:00;0.80;;;0.80;;
19107;SDS011;9686;48.832;9.126;2024-02-26T01:16:25;0.60;;;0.60;;
19107;SDS011;9686;48.832;9.126;2024-02-26T01:18:50;1.00;;;0.80;;
19107;SDS011;9686;48.832;9.126;2024-02-26T01:21:16;0.77;;;0.70;;
19107;SDS011;9686;48.832;9.126;2024-02-26T01:23:41;1.43;;;0.73;;
19107;SDS011;9686;48.832;9.126;2024-02-26T01:26:07;2.03;;;0.87;;
19107;SDS011;9686;48.832;9.126;2024-02-26T01:28:32;0.80;;;0.73;;
19107;SDS011;9686;48.832;9.126;2024-02-26T01:30:58;1.03;;;0.93;;
19107;SDS011;9686;48.832;9.126;2024-02-26T01:33:25;0.63;;;0.63;;
19107;SDS011;9686;48.832;9.126;2024-02-26T01:35:51;0.97;;;0.60;;
19107;SDS011;9686;48.832;9.126;2024-02-26T01:38:16;1.30;;;0.87;;
19107;SDS011;9686;48.832;9.126;2024-02-26T01:40:42;0.40;;;0.40;;
19107;SDS011;9686;48.832;9.126;2024-02-26T01:43:07;1.27;;;0.80;;
19107;SDS011;9686;48.832;9.126;2024-02-26T01:45:32;2.90;;;0.80;;
19107;SDS011;9686;48.832;9.126;2024-02-26T01:47:57;5.70;;;0.80;;
19107;SDS011;9686;48.832;9.126;2024-02-26T01:50:23;1.43;;;0.93;;
19107;SDS011;9686;48.832;9.126;2024-02-26T01:52:49;1.00;;;0.87;;
19107;SDS011;9686;48.832;9.126;2024-02-26T01:55:17;0.87;;;0.70;;
19107;SDS011;9686;48.832;9.126;2024-02-26T01:57:43;2.27;;;0.97;;
19107;SDS011;9686;48.832;9.126;2024-02-26T02:00:10;1.50;;;0.90;;
19107;SDS011;9686;48.832;9.126;2024-02-26T02:02:37;1.10;;;0.67;;
19107;SDS011;9686;48.832;9.126;2024-02-26T02:05:04;1.13;;;0.80;;
19107;SDS011;9686;48.832;9.126;2024-02-26T02:07:30;1.00;;;0.90;;
19107;SDS011;9686;48.832;9.126;2024-02-26T02:09:56;0.67;;;0.60;;
19107;SDS011;9686;48.832;9.126;2024-02-26T02:12:22;2.50;;;1.00;;
19107;SDS011;9686;48.832;9.126;2024-02-26T02:14:47;0.70;;;0.60;;
19107;SDS011;9686;48.832;9.126;2024-02-26T02:17:12;0.90;;;0.80;;
19107;SDS011;9686;48.832;9.126;2024-02-26T02:19:38;3.63;;;1.57;;
19107;SDS011;9686;48.832;9.126;2024-02-26T02:22:03;2.07;;;1.27;;
19107;SDS011;9686;48.832;9.126;2024-02-26T02:24:28;0.70;;;0.70;;
19107;SDS011;9686;48.832;9.126;2024-02-26T02:26:54;0.90;;;0.90;;
19107;SDS011;9686;48.832;9.126;2024-02-26T02:29:20;1.23;;;1.13;;
19107;SDS011;9686;48.832;9.126;2024-02-26T02:31:46;0.50;;;0.50;;
19107;SDS011;9686;48.832;9.126;2024-02-26T02:34:11;4.17;;;1.00;;
19107;SDS011;9686;48.832;9.126;2024-02-26T02:36:52;1.97;;;1.17;;
19107;SDS011;9686;48.832;9.126;2024-02-26T02:39:18;1.63;;;1.33;;
19107;SDS011;9686;48.832;9.126;2024-02-26T02:41:44;1.30;;;1.20;;
19107;SDS011;9686;48.832;9.126;2024-02-26T02:44:09;1.53;;;1.33;;
19107;SDS011;9686;48.832;9.126;2024-02-26T02:46:34;1.67;;;1.17;;
19107;SDS011;9686;48.832;9.126;2024-02-26T02:49:00;1.57;;;1.43;;
19107;SDS011;9686;48.832;9.126;2024-02-26T02:51:25;1.60;;;1.00;;
19107;SDS011;9686;48.832;9.126;2024-02-26T02:53:51;1.23;;;1.00;;
19107;SDS011;9686;48.832;9.126;2024-02-26T02:56:16;1.53;;;1.20;;
19107;SDS011;9686;48.832;9.126;2024-02-26T02:58:41;1.60;;;1.03;;
19107;SDS011;9686;48.832;9.126;2024-02-26T03:01:07;1.10;;;1.10;;
19107;SDS011;9686;48.832;9.126;2024-02-26T03:03:32;2.20;;;1.13;;
19107;SDS011;9686;48.832;9.126;2024-02-26T03:05:58;1.00;;;0.90;;
19107;SDS011;9686;48.832;9.126;2024-02-26T03:08:23;1.67;;;0.83;;
19107;SDS011;9686;48.832;9.126;2024-02-26T03:10:50;1.30;;;1.23;;
19107;SDS011;9686;48.832;9.126;2024-02-26T03:13:16;1.30;;;1.13;;
19107;SDS011;9686;48.832;9.126;2024-02-26T03:15:41;2.20;;;1.30;;
19107;SDS011;9686;48.832;9.126;2024-02-26T03:18:07;1.93;;;1.20;;
19107;SDS011;9686;48.832;9.126;2024-02-26T03:20:32;0.93;;;0.60;;
19107;SDS011;9686;48.832;9.126;2024-02-26T03:22:58;1.07;;;1.00;;
19107;SDS011;9686;48.832;9.126;2024-02-26T03:25:23;1.10;;;1.00;;
19107;SDS011;9686;48.832;9.126;2024-02-26T03:27:48;2.07;;;1.10;;
19107;SDS011;9686;48.832;9.126;2024-02-26T03:30:13;0.70;;;0.70;;
19107;SDS011;9686;48.832;9.126;2024-02-26T03:32:39;0.70;;;0.70;;
19107;SDS011;9686;48.832;9.126;2024-02-26T03:35:04;1.37;;;1.00;;
19107;SDS011;9686;48.832;9.126;2024-02-26T03:37:30;1.50;;;1.20;;
19107;SDS011;9686;48.832;9.126;2024-02-26T03:39:55;0.90;;;0.90;;
19107;SDS011;9686;48.832;9.126;2024-02-26T03:42:22;1.30;;;1.10;;
19107;SDS011;9686;48.832;9.126;2024-02-26T03:44:47;1.37;;;1.07;;
19107;SDS011;9686;48.832;9.126;2024-02-26T03:47:12;0.80;;;0.80;;
19107;SDS011;9686;48.832;9.126;2024-02-26T03:49:38;1.83;;;1.50;;
19107;SDS011;9686;48.832;9.126;2024-02-26T03:52:03;0.80;;;0.80;;
19107;SDS011;9686;48.832;9.126;2024-02-26T03:54:28;1.13;;;0.93;;
19107;SDS011;9686;48.832;9.126;2024-02-26T03:56:54;1.13;;;1.07;;
19107;SDS011;9686;48.832;9.126;2024-02-26T03:59:19;1.63;;;1.07;;
19107;SDS011;9686;48.832;9.126;2024-02-26T04:01:45;0.50;;;0.50;;
19107;SDS011;9686;48.832;9.126;2024-02-26T04:04:12;1.20;;;0.87;;
19107;SDS011;9686;48.832;9.126;2024-02-26T04:06:37;1.33;;;0.93;;
19107;SDS011;9686;48.832;9.126;2024-02-26T04:09:03;1.50;;;1.00;;
19107;SDS011;9686;48.832;9.126;2024-02-26T04:11:28;0.80;;;0.80;;
19107;SDS011;9686;48.832;9.126;2024-02-26T04:13:54;1.40;;;1.03;;
19107;SDS011;9686;48.832;9.126;2024-02-26T04:16:19;3.17;;;0.70;;
19107;SDS011;9686;48.832;9.126;2024-02-26T04:18:45;1.17;;;1.07;;
19107;SDS011;9686;48.832;9.126;2024-02-26T04:21:10;1.10;;;1.00;;
19107;SDS011;9686;48.832;9.126;2024-02-26T04:23:35;1.37;;;0.80;;
19107;SDS011;9686;48.832;9.126;2024-02-26T04:26:01;1.73;;;1.47;;
19107;SDS011;9686;48.832;9.126;2024-02-26T04:28:26;0.97;;;0.87;;
19107;SDS011;9686;48.832;9.126;2024-02-26T04:30:53;0.80;;;0.80;;
19107;SDS011;9686;48.832;9.126;2024-02-26T04:33:19;1.33;;;1.00;;
19107;SDS011;9686;48.832;9.126;2024-02-26T04:35:44;1.23;;;0.83;;
19107;SDS011;9686;48.832;9.126;2024-02-26T04:38:10;1.60;;;0.83;;
19107;SDS011;9686;48.832;9.126;2024-02-26T04:40:35;1.43;;;1.03;;
19107;SDS011;9686;48.832;9.126;2024-02-26T04:43:00;1.20;;;1.10;;
19107;SDS011;9686;48.832;9.126;2024-02-26T04:45:26;0.70;;;0.70;;
19107;SDS011;9686;48.832;9.126;2024-02-26T04:47:51;0.70;;;0.70;;
19107;SDS011;9686;48.832;9.126;2024-02-26T04:50:16;1.80;;;1.00;;
19107;SDS011;9686;48.832;9.126;2024-02-26T04:52:42;0.70;;;0.70;;
19107;SDS011;9686;48.832;9.126;2024-02-26T04:55:07;1.10;;;1.00;;
19107;SDS011;9686;48.832;9.126;2024-02-26T04:57:33;0.67;;;0.67;;
19107;SDS011;9686;48.832;9.126;2024-02-26T04:59:58;1.70;;;1.20;;
19107;SDS011;9686;48.832;9.126;2024-02-26T05:02:23;3.90;;;0.70;;
19107;SDS011;9686;48.832;9.126;2024-02-26T05:04:49;1.27;;;0.90;;
19107;SDS011;9686;48.832;9.126;2024-02-26T05:07:15;1.13;;;0.90;;
19107;SDS011;9686;48.832;9.126;2024-02-26T05:09:42;0.77;;;0.77;;
19107;SDS011;9686;48.832;9.126;2024-02-26T05:12:08;1.77;;;1.20;;
19107;SDS011;9686;48.832;9.126;2024-02-26T05:14:34;0.70;;;0.70;;
19107;SDS011;9686;48.832;9.126;2024-02-26T05:16:59;0.67;;;0.60;;
19107;SDS011;9686;48.832;9.126;2024-02-26T05:19:24;0.80;;;0.80;;
19107;SDS011;9686;48.832;9.126;2024-02-26T05:21:50;0.80;;;0.80;;
19107;SDS011;9686;48.832;9.126;2024-02-26T05:24:15;2.03;;;1.10;;
19107;SDS011;9686;48.832;9.126;2024-02-26T05:26:42;1.97;;;0.83;;
19107;SDS011;9686;48.832;9.126;2024-02-26T05:29:08;0.97;;;0.90;;
19107;SDS011;9686;48.832;9.126;2024-02-26T05:31:33;0.60;;;0.60;;
19107;SDS011;9686;48.832;9.126;2024-02-26T05:33:58;1.27;;;1.00;;
19107;SDS011;9686;48.832;9.126;2024-02-26T05:36:24;2.00;;;1.40;;
19107;SDS011;9686;48.832;9.126;2024-02-26T05:38:50;1.70;;;1.13;;
19107;SDS011;9686;48.832;9.126;2024-02-26T05:41:16;2.10;;;0.87;;
19107;SDS011;9686;48.832;9.126;2024-02-26T05:43:42;1.93;;;1.10;;
19107;SDS011;9686;48.832;9.126;2024-02-26T05:46:07;1.03;;;1.03;;
19107;SDS011;9686;48.832;9.126;2024-02-26T05:48:33;0.63;;;0.63;;
19107;SDS011;9686;48.832;9.126;2024-02-26T05:50:58;2.70;;;1.03;;
19107;SDS011;9686;48.832;9.126;2024-02-26T05:53:24;0.90;;;0.90;;
19107;SDS011;9686;48.832;9.126;2024-02-26T05:55:49;1.43;;;1.00;;
19107;SDS011;9686;48.832;9.126;2024-02-26T05:58:14;0.93;;;0.83;;
19107;SDS011;9686;48.832;9.126;2024-02-26T06:00:40;1.10;;;1.00;;
19107;SDS011;9686;48.832;9.126;2024-02-26T06:03:05;1.93;;;0.87;;
19107;SDS011;9686;48.832;9.126;2024-02-26T06:05:30;1.13;;;1.00;;
19107;SDS011;9686;48.832;9.126;2024-02-26T06:07:56;0.93;;;0.73;;
19107;SDS011;9686;48.832;9.126;2024-02-26T06:10:21;1.97;;;0.90;;
19107;SDS011;9686;48.832;9.126;2024-02-26T06:12:47;1.23;;;1.20;;
19107;SDS011;9686;48.832;9.126;2024-02-26T06:15:12;1.70;;;1.13;;
19107;SDS011;9686;48.832;9.126;2024-02-26T06:17:38;1.57;;;1.20;;
19107;SDS011;9686;48.832;9.126;2024-02-26T06:20:03;1.20;;;1.10;;
19107;SDS011;9686;48.832;9.126;2024-02-26T06:22:31;2.00;;;0.90;;
19107;SDS011;9686;48.832;9.126;2024-02-26T06:24:56;1.03;;;0.97;;
19107;SDS011;9686;48.832;9.126;2024-02-26T06:27:22;2.00;;;1.10;;
19107;SDS011;9686;48.832;9.126;2024-02-26T06:29:48;1.03;;;0.93;;
19107;SDS011;9686;48.832;9.126;2024-02-26T06:32:14;0.50;;;0.50;;
19107;SDS011;9686;48.832;9.126;2024-02-26T06:34:39;1.43;;;1.23;;
19107;SDS011;9686;48.832;9.126;2024-02-26T06:37:06;0.73;;;0.73;;
19107;SDS011;9686;48.832;9.126;2024-02-26T06:39:32;0.90;;;0.80;;
19107;SDS011;9686;48.832;9.126;2024-02-26T06:41:58;1.03;;;1.00;;
19107;SDS011;9686;48.832;9.126;2024-02-26T06:44:26;1.10;;;0.93;;
19107;SDS011;9686;48.832;9.126;2024-02-26T06:46:56;0.73;;;0.73;;
19107;SDS011;9686;48.832;9.126;2024-02-26T06:49:22;1.17;;;0.90;;
19107;SDS011;9686;48.832;9.126;2024-02-26T06:51:47;1.43;;;1.30;;
19107;SDS011;9686;48.832;9.126;2024-02-26T06:54:13;1.03;;;0.67;;
19107;SDS011;9686;48.832;9.126;2024-02-26T06:56:38;0.90;;;0.90;;
19107;SDS011;9686;48.832;9.126;2024-02-26T06:59:03;1.40;;;1.30;;
19107;SDS011;9686;48.832;9.126;2024-02-26T07:01:29;0.60;;;0.60;;
19107;SDS011;9686;48.832;9.126;2024-02-26T07:03:55;1.90;;;1.33;;
19107;SDS011;9686;48.832;9.126;2024-02-26T07:06:21;0.90;;;0.90;;
19107;SDS011;9686;48.832;9.126;2024-02-26T07:08:46;2.73;;;1.73;;
19107;SDS011;9686;48.832;9.126;2024-02-26T07:11:11;0.80;;;0.80;;
19107;SDS011;9686;48.832;9.126;2024-02-26T07:13:37;1.37;;;0.90;;
19107;SDS011;9686;48.832;9.126;2024-02-26T07:16:02;5.40;;;1.70;;
19107;SDS011;9686;48.832;9.126;2024-02-26T07:18:28;1.70;;;1.33;;
19107;SDS011;9686;48.832;9.126;2024-02-26T07:20:54;1.73;;;1.30;;
19107;SDS011;9686;48.832;9.126;2024-02-26T07:23:19;1.60;;;1.10;;
19107;SDS011;9686;48.832;9.126;2024-02-26T07:25:44;1.07;;;0.80;;
19107;SDS011;9686;48.832;9.126;2024-02-26T07:28:11;1.27;;;1.00;;
19107;SDS011;9686;48.832;9.126;2024-02-26T07:30:36;1.10;;;1.00;;
19107;SDS011;9686;48.832;9.126;2024-02-26T07:33:02;0.63;;;0.63;;
19107;SDS011;9686;48.832;9.126;2024-02-26T07:35:27;1.10;;;1.03;;
19107;SDS011;9686;48.832;9.126;2024-02-26T07:37:53;2.03;;;1.07;;
19107;SDS011;9686;48.832;9.126;2024-02-26T07:40:18;1.13;;;0.93;;
19107;SDS011;9686;48.832;9.126;2024-02-26T07:42:43;0.73;;;0.73;;
19107;SDS011;9686;48.832;9.126;2024-02-26T07:45:09;0.60;;;0.60;;
19107;SDS011;9686;48.832;9.126;2024-02-26T07:47:35;4.93;;;1.10;;
19107;SDS011;9686;48.832;9.126;2024-02-26T07:50:00;0.73;;;0.73;;
19107;SDS011;9686;48.832;9.126;2024-02-26T07:52:26;1.33;;;1.23;;
19107;SDS011;9686;48.832;9.126;2024-02-26T07:54:51;1.13;;;1.13;;
19107;SDS011;9686;48.832;9.126;2024-02-26T07:57:16;4.83;;;1.17;;
19107;SDS011;9686;48.832;9.126;2024-02-26T07:59:42;0.97;;;0.87;;
19107;SDS011;9686;48.832;9.126;2024-02-26T08:02:08;1.07;;;1.07;;
19107;SDS011;9686;48.832;9.126;2024-02-26T08:04:33;1.00;;;0.90;;
19107;SDS011;9686;48.832;9.126;2024-02-26T08:06:58;5.70;;;2.83;;
19107;SDS011;9686;48.832;9.126;2024-02-26T08:09:23;1.73;;;1.63;;
19107;SDS011;9686;48.832;9.126;2024-02-26T08:11:49;3.20;;;1.27;;
19107;SDS011;9686;48.832;9.126;2024-02-26T08:14:14;1.90;;;1.37;;
19107;SDS011;9686;48.832;9.126;2024-02-26T08:16:39;1.20;;;1.20;;
19107;SDS011;9686;48.832;9.126;2024-02-26T08:19:05;1.23;;;1.13;;
19107;SDS011;9686;48.832;9.126;2024-02-26T08:21:30;2.47;;;1.17;;
19107;SDS011;9686;48.832;9.126;2024-02-26T08:23:55;2.50;;;1.57;;
19107;SDS011;9686;48.832;9.126;2024-02-26T08:26:20;1.30;;;1.20;;
19107;SDS011;9686;48.832;9.126;2024-02-26T08:28:47;1.70;;;1.60;;
19107;SDS011;9686;48.832;9.126;2024-02-26T08:31:14;4.37;;;2.50;;
19107;SDS011;9686;48.832;9.126;2024-02-26T08:33:39;3.13;;;2.23;;
19107;SDS011;9686;48.832;9.126;2024-02-26T08:36:05;4.37;;;1.47;;
19107;SDS011;9686;48.832;9.126;2024-02-26T08:38:31;2.67;;;1.97;;
19107;SDS011;9686;48.832;9.126;2024-02-26T08:40:56;7.93;;;2.83;;
19107;SDS011;9686;48.832;9.126;2024-02-26T08:43:21;1.80;;;1.60;;
19107;SDS011;9686;48.832;9.126;2024-02-26T08:45:47;2.00;;;1.60;;
19107;SDS011;9686;48.832;9.126;2024-02-26T08:48:12;1.33;;;1.23;;
19107;SDS011;9686;48.832;9.126;2024-02-26T08:50:37;1.87;;;1.40;;
19107;SDS011;9686;48.832;9.126;2024-02-26T08:53:08;4.27;;;2.13;;
19107;SDS011;9686;48.832;9.126;2024-02-26T08:55:34;7.53;;;1.80;;
19107;SDS011;9686;48.832;9.126;2024-02-26T08:57:59;3.80;;;1.60;;
19107;SDS011;9686;48.832;9.126;2024-02-26T09:00:24;2.87;;;1.93;;
19107;SDS011;9686;48.832;9.126;2024-02-26T09:02:49;1.67;;;1.30;;
19107;SDS011;9686;48.832;9.126;2024-02-26T09:05:15;2.03;;;1.27;;
19107;SDS011;9686;48.832;9.126;2024-02-26T09:07:40;2.03;;;1.83;;
19107;SDS011;9686;48.832;9.126;2024-02-26T09:10:06;1.67;;;1.57;;
19107;SDS011;9686;48.832;9.126;2024-02-26T09:12:35;1.70;;;1.60;;
19107;SDS011;9686;48.832;9.126;2024-02-26T09:15:01;1.90;;;1.80;;
19107;SDS011;9686;48.832;9.126;2024-02-26T09:17:26;1.23;;;1.13;;
19107;SDS011;9686;48.832;9.126;2024-02-26T09:19:51;2.27;;;1.20;;
19107;SDS011;9686;48.832;9.126;2024-02-26T09:22:17;1.33;;;1.27;;
19107;SDS011;9686;48.832;9.126;2024-02-26T09:24:42;2.20;;;2.00;;
19107;SDS011;9686;48.832;9.126;2024-02-26T09:27:07;2.73;;;1.50;;
19107;SDS011;9686;48.832;9.126;2024-02-26T09:29:32;2.97;;;1.60;;
19107;SDS011;9686;48.832;9.126;2024-02-26T09:32:00;3.67;;;1.67;;
19107;SDS011;9686;48.832;9.126;2024-02-26T09:34:26;3.27;;;1.00;;
19107;SDS011;9686;48.832;9.126;2024-02-26T09:36:51;1.47;;;1.37;;
19107;SDS011;9686;48.832;9.126;2024-02-26T09:39:16;1.50;;;1.40;;
19107;SDS011;9686;48.832;9.126;2024-02-26T09:41:46;1.53;;;1.43;;
19107;SDS011;9686;48.832;9.126;2024-02-26T09:44:12;1.40;;;1.30;;
19107;SDS011;9686;48.832;9.126;2024-02-26T09:46:43;1.73;;;1.27;;
19107;SDS011;9686;48.832;9.126;2024-02-26T09:49:09;1.50;;;1.23;;
19107;SDS011;9686;48.832;9.126;2024-02-26T09:51:36;1.30;;;1.20;;
19107;SDS011;9686;48.832;9.126;2024-02-26T09:54:03;2.17;;;1.50;;
19107;SDS011;9686;48.832;9.126;2024-02-26T09:56:28;2.17;;;1.97;;
19107;SDS011;9686;48.832;9.126;2024-02-26T09:58:55;1.60;;;1.50;;
19107;SDS011;9686;48.832;9.126;2024-02-26T10:01:21;4.10;;;1.27;;
19107;SDS011;9686;48.832;9.126;2024-02-26T10:03:51;1.77;;;1.30;;
19107;SDS011;9686;48.832;9.126;2024-02-26T10:06:20;1.50;;;0.93;;
19107;SDS011;9686;48.832;9.126;2024-02-26T10:08:46;1.90;;;1.60;;
19107;SDS011;9686;48.832;9.126;2024-02-26T10:11:13;1.83;;;1.67;;
19107;SDS011;9686;48.832;9.126;2024-02-26T10:13:39;2.67;;;1.37;;
19107;SDS011;9686;48.832;9.126;2024-02-26T10:16:06;3.30;;;1.23;;
19107;SDS011;9686;48.832;9.126;2024-02-26T10:18:44;1.83;;;1.30;;
19107;SDS011;9686;48.832;9.126;2024-02-26T10:21:17;1.30;;;1.17;;
19107;SDS011;9686;48.832;9.126;2024-02-26T10:23:45;1.60;;;1.40;;
19107;SDS011;9686;48.832;9.126;2024-02-26T10:26:12;0.73;;;0.73;;
19107;SDS011;9686;48.832;9.126;2024-02-26T10:28:39;1.13;;;1.03;;
19107;SDS011;9686;48.832;9.126;2024-02-26T10:31:05;3.90;;;1.27;;
19107;SDS011;9686;48.832;9.126;2024-02-26T10:33:32;0.77;;;0.77;;
19107;SDS011;9686;48.832;9.126;2024-02-26T10:36:00;1.23;;;0.93;;
19107;SDS011;9686;48.832;9.126;2024-02-26T10:38:26;1.10;;;1.00;;
19107;SDS011;9686;48.832;9.126;2024-02-26T10:40:51;3.80;;;1.50;;
19107;SDS011;9686;48.832;9.126;2024-02-26T10:43:16;2.87;;;1.30;;
19107;SDS011;9686;48.832;9.126;2024-02-26T10:45:43;1.00;;;1.00;;
19107;SDS011;9686;48.832;9.126;2024-02-26T10:48:09;3.17;;;0.83;;
19107;SDS011;9686;48.832;9.126;2024-02-26T10:50:36;4.70;;;0.93;;
19107;SDS011;9686;48.832;9.126;2024-02-26T10:53:01;1.40;;;1.03;;
19107;SDS011;9686;48.832;9.126;2024-02-26T10:55:28;1.63;;;1.10;;
19107;SDS011;9686;48.832;9.126;2024-02-26T10:57:55;1.10;;;1.00;;
19107;SDS011;9686;48.832;9.126;2024-02-26T11:00:21;3.27;;;1.13;;
19107;SDS011;9686;48.832;9.126;2024-02-26T11:02:47;0.70;;;0.70;;
19107;SDS011;9686;48.832;9.126;2024-02-26T11:05:13;1.23;;;1.13;;
19107;SDS011;9686;48.832;9.126;2024-02-26T11:07:39;1.37;;;1.00;;
19107;SDS011;9686;48.832;9.126;2024-02-26T11:10:06;1.63;;;1.00;;
19107;SDS011;9686;48.832;9.126;2024-02-26T11:12:33;2.50;;;1.10;;
19107;SDS011;9686;48.832;9.126;2024-02-26T11:15:02;0.70;;;0.70;;
19107;SDS011;9686;48.832;9.126;2024-02-26T11:17:28;0.70;;;0.70;;
19107;SDS011;9686;48.832;9.126;2024-02-26T11:19:57;0.87;;;0.83;;
19107;SDS011;9686;48.832;9.126;2024-02-26T11:22:24;0.50;;;0.50;;
19107;SDS011;9686;48.832;9.126;2024-02-26T11:24:53;1.53;;;0.87;;
19107;SDS011;9686;48.832;9.126;2024-02-26T11:27:23;1.70;;;1.27;;
19107;SDS011;9686;48.832;9.126;2024-02-26T11:29:55;1.13;;;1.00;;
19107;SDS011;9686;48.832;9.126;2024-02-26T11:32:24;0.57;;;0.57;;
19107;SDS011;9686;48.832;9.126;2024-02-26T11:34:51;2.80;;;0.60;;
19107;SDS011;9686;48.832;9.126;2024-02-26T11:37:18;0.90;;;0.90;;
19107;SDS011;9686;48.832;9.126;2024-02-26T11:39:45;1.00;;;0.77;;
19107;SDS011;9686;48.832;9.126;2024-02-26T11:42:13;2.13;;;0.67;;
19107;SDS011;9686;48.832;9.126;2024-02-26T11:44:40;0.93;;;0.80;;
19107;SDS011;9686;48.832;9.126;2024-02-26T11:47:13;1.10;;;0.63;;
19107;SDS011;9686;48.832;9.126;2024-02-26T11:49:45;1.47;;;1.27;;
19107;SDS011;9686;48.832;9.126;2024-02-26T11:52:12;0.60;;;0.57;;
19107;SDS011;9686;48.832;9.126;2024-02-26T11:54:49;0.50;;;0.50;;
19107;SDS011;9686;48.832;9.126;2024-02-26T11:59:56;0.87;;;0.80;;
19107;SDS011;9686;48.832;9.126;2024-02-26T12:02:50;1.80;;;1.10;;
19107;SDS011;9686;48.832;9.126;2024-02-26T12:05:24;0.73;;;0.73;;
19107;SDS011;9686;48.832;9.126;2024-02-26T12:07:55;0.50;;;0.50;;
19107;SDS011;9686;48.832;9.126;2024-02-26T12:10:25;1.50;;;0.70;;
19107;SDS011;9686;48.832;9.126;2024-02-26T12:12:54;0.70;;;0.70;;
19107;SDS011;9686;48.832;9.126;2024-02-26T12:15:24;0.40;;;0.40;;
19107;SDS011;9686;48.832;9.126;2024-02-26T12:17:51;0.87;;;0.57;;
19107;SDS011;9686;48.832;9.126;2024-02-26T12:20:17;0.70;;;0.60;;
19107;SDS011;9686;48.832;9.126;2024-02-26T12:22:44;0.50;;;0.50;;
19107;SDS011;9686;48.832;9.126;2024-02-26T12:25:14;0.60;;;0.60;;
19107;SDS011;9686;48.832;9.126;2024-02-26T12:27:39;0.47;;;0.47;;
19107;SDS011;9686;48.832;9.126;2024-02-26T12:30:04;0.50;;;0.50;;
19107;SDS011;9686;48.832;9.126;2024-02-26T12:32:31;0.50;;;0.50;;
19107;SDS011;9686;48.832;9.126;2024-02-26T12:34:57;0.83;;;0.73;;
19107;SDS011;9686;48.832;9.126;2024-02-26T12:37:22;1.03;;;0.93;;
19107;SDS011;9686;48.832;9.126;2024-02-26T12:39:47;0.50;;;0.50;;
19107;SDS011;9686;48.832;9.126;2024-02-26T12:42:13;0.50;;;0.50;;
19107;SDS011;9686;48.832;9.126;2024-02-26T12:44:39;1.00;;;0.60;;
19107;SDS011;9686;48.832;9.126;2024-02-26T12:47:04;0.90;;;0.60;;
19107;SDS011;9686;48.832;9.126;2024-02-26T12:49:30;1.00;;;0.73;;
19107;SDS011;9686;48.832;9.126;2024-02-26T12:51:56;0.80;;;0.80;;
19107;SDS011;9686;48.832;9.126;2024-02-26T12:54:28;0.23;;;0.23;;
19107;SDS011;9686;48.832;9.126;2024-02-26T12:56:56;1.07;;;0.80;;
19107;SDS011;9686;48.832;9.126;2024-02-26T12:59:23;3.23;;;0.97;;
19107;SDS011;9686;48.832;9.126;2024-02-26T13:01:48;0.53;;;0.53;;
19107;SDS011;9686;48.832;9.126;2024-02-26T13:04:14;1.10;;;0.57;;
19107;SDS011;9686;48.832;9.126;2024-02-26T13:06:40;1.20;;;1.10;;
19107;SDS011;9686;48.832;9.126;2024-02-26T13:09:05;2.07;;;0.73;;
19107;SDS011;9686;48.832;9.126;2024-02-26T13:11:31;0.73;;;0.63;;
19107;SDS011;9686;48.832;9.126;2024-02-26T13:13:57;1.27;;;0.70;;
19107;SDS011;9686;48.832;9.126;2024-02-26T13:16:24;1.00;;;0.90;;
19107;SDS011;9686;48.832;9.126;2024-02-26T13:18:50;0.70;;;0.70;;
19107;SDS011;9686;48.832;9.126;2024-02-26T13:21:15;0.50;;;0.50;;
19107;SDS011;9686;48.832;9.126;2024-02-26T13:23:43;0.40;;;0.40;;
19107;SDS011;9686;48.832;9.126;2024-02-26T13:26:13;0.70;;;0.70;;
19107;SDS011;9686;48.832;9.126;2024-02-26T13:28:38;0.80;;;0.80;;
19107;SDS011;9686;48.832;9.126;2024-02-26T13:31:04;0.70;;;0.60;;
19107;SDS011;9686;48.832;9.126;2024-02-26T13:33:32;2.70;;;1.03;;
19107;SDS011;9686;48.832;9.126;2024-02-26T13:35:58;1.53;;;0.60;;
19107;SDS011;9686;48.832;9.126;2024-02-26T13:38:24;1.20;;;0.60;;
19107;SDS011;9686;48.832;9.126;2024-02-26T13:40:51;1.20;;;0.57;;
19107;SDS011;9686;48.832;9.126;2024-02-26T13:43:17;0.67;;;0.67;;
19107;SDS011;9686;48.832;9.126;2024-02-26T13:45:44;0.50;;;0.50;;
19107;SDS011;9686;48.832;9.126;2024-02-26T13:48:10;0.50;;;0.50;;
19107;SDS011;9686;48.832;9.126;2024-02-26T13:50:36;0.20;;;0.20;;
19107;SDS011;9686;48.832;9.126;2024-02-26T13:53:02;0.57;;;0.57;;
19107;SDS011;9686;48.832;9.126;2024-02-26T13:55:27;0.30;;;0.30;;
19107;SDS011;9686;48.832;9.126;2024-02-26T13:57:55;0.60;;;0.57;;
19107;SDS011;9686;48.832;9.126;2024-02-26T14:00:21;0.53;;;0.40;;
19107;SDS011;9686;48.832;9.126;2024-02-26T14:02:47;0.40;;;0.40;;
19107;SDS011;9686;48.832;9.126;2024-02-26T14:05:12;5.50;;;0.67;;
19107;SDS011;9686;48.832;9.126;2024-02-26T14:07:38;0.40;;;0.40;;
19107;SDS011;9686;48.832;9.126;2024-02-26T14:10:04;0.30;;;0.30;;
19107;SDS011;9686;48.832;9.126;2024-02-26T14:12:30;0.33;;;0.33;;
19107;SDS011;9686;48.832;9.126;2024-02-26T14:14:55;0.50;;;0.40;;
19107;SDS011;9686;48.832;9.126;2024-02-26T14:17:21;3.30;;;0.60;;
19107;SDS011;9686;48.832;9.126;2024-02-26T14:19:47;0.37;;;0.37;;
19107;SDS011;9686;48.832;9.126;2024-02-26T14:22:13;0.40;;;0.40;;
19107;SDS011;9686;48.832;9.126;2024-02-26T14:24:40;0.40;;;0.40;;
19107;SDS011;9686;48.832;9.126;2024-02-26T14:27:07;0.30;;;0.30;;
19107;SDS011;9686;48.832;9.126;2024-02-26T14:29:34;0.80;;;0.57;;
19107;SDS011;9686;48.832;9.126;2024-02-26T14:31:59;0.30;;;0.30;;
19107;SDS011;9686;48.832;9.126;2024-02-26T14:34:26;0.67;;;0.50;;
19107;SDS011;9686;48.832;9.126;2024-02-26T14:36:51;0.20;;;0.20;;
19107;SDS011;9686;48.832;9.126;2024-02-26T14:39:17;0.10;;;0.10;;
19107;SDS011;9686;48.832;9.126;2024-02-26T14:41:42;0.33;;;0.33;;
19107;SDS011;9686;48.832;9.126;2024-02-26T14:44:07;0.20;;;0.20;;
19107;SDS011;9686;48.832;9.126;2024-02-26T14:46:33;0.20;;;0.20;;
19107;SDS011;9686;48.832;9.126;2024-02-26T14:48:58;0.17;;;0.17;;
19107;SDS011;9686;48.832;9.126;2024-02-26T14:51:24;1.53;;;0.23;;
19107;SDS011;9686;48.832;9.126;2024-02-26T14:53:49;0.23;;;0.23;;
19107;SDS011;9686;48.832;9.126;2024-02-26T14:56:15;0.20;;;0.20;;